Flight Track Log - Related Links

Times and Time Zones

All times are in EDT time to prevent confusion due to time zone crossing. See the N163CD flight status page for this flight to view local times or setup timezone preferences in your user account.


Time Position Orientation Groundspeed Altitude Reporting Facility
EDT Latitude Longitude Course Direction KTS MPH feet Rate Location/Type
Fri 07:46:12 PM 41.8319 -85.5639 162° South 127 146 2,700  Level Chicago Center
Fri 07:47:14 PM 41.7992 -85.5481 160° South 127 146 3,100 387 Climbing Chicago Center
Fri 07:48:16 PM 41.7669 -85.5300 157° South 126 145 3,500 339 Climbing Chicago Center
Fri 07:49:18 PM 41.7356 -85.5111 156° South 124 143 3,800 194 Climbing Chicago Center
Fri 07:50:00 PM 41.7343 -85.4964 163° South  Level Estimated
Fri 07:50:20 PM 41.6928 -85.4950 164° South 133 153 3,900  Level Chicago Center
Fri 07:51:00 PM 41.6968 -85.4799 162° South  Level FlightAware Approximate
Fri 07:51:22 PM 41.6556 -85.4800 163° South 137 158 3,900  Level Chicago Center
Fri 07:52:24 PM 41.6189 -85.4586 156° South 142 163 3,800 -48 Descending Chicago Center
Fri 07:53:26 PM 41.5833 -85.4364 155° Southeast 145 167 3,800 48 Level Chicago Center
Fri 07:54:28 PM 41.5394 -85.4139 159° South 143 165 3,900  Climbing Chicago Center
Fri 07:55:31 PM 41.5008 -85.4017 167° South 142 163 3,800  Descending Chicago Center
Fri 07:56:33 PM 41.4592 -85.3950 173° South 145 167 3,900 48 Climbing Chicago Center
Fri 07:57:35 PM 41.4194 -85.3894 174° South 146 168 3,900  Level Chicago Center
Fri 07:58:37 PM 41.3783 -85.3819 172° South 146 168 3,900  Level Chicago Center
Fri 07:59:39 PM 41.3294 -85.3725 172° South 148 170 3,900  Level Chicago Center
Fri 08:00:41 PM 41.2900 -85.3628 170° South 146 168 3,900  Level Chicago Center
Fri 08:01:43 PM 41.2525 -85.3475 163° South 144 166 3,900  Level Chicago Center
Fri 08:02:45 PM 41.2158 -85.3264 157° South 143 165 3,900 -48 Level Chicago Center
Fri 08:03:47 PM 41.1794 -85.3064 158° South 143 165 3,800  Descending Chicago Center
Fri 08:04:49 PM 41.1431 -85.2850 156° South 143 165 3,900 48 Climbing Chicago Center
Fri 08:05:52 PM 41.0983 -85.2603 157° South 144 166 3,900  Level Chicago Center
Fri 08:06:54 PM 41.0608 -85.2406 158° South 145 167 3,900  Level Chicago Center
Fri 08:07:56 PM 41.0236 -85.2217 159° South 145 167 3,900  Level Chicago Center
Fri 08:08:58 PM 40.9858 -85.2039 160° South 144 166 3,900  Level Chicago Center
Fri 08:10:00 PM 40.9483 -85.1847 159° South 145 167 3,900  Level Chicago Center
Fri 08:11:02 PM 40.9103 -85.1658 159° South 146 168 3,900 145 Level Chicago Center
Fri 08:12:04 PM 40.8675 -85.1458 161° South 140 161 4,200 290 Climbing Chicago Center
Fri 08:13:06 PM 40.8336 -85.1308 161° South 134 154 4,500 290 Climbing Chicago Center
Fri 08:14:08 PM 40.7997 -85.1156 161° South 131 151 4,800 194 Climbing Chicago Center
Fri 08:15:10 PM 40.7650 -85.1011 163° South 130 150 4,900 48 Climbing Chicago Center
Fri 08:16:12 PM 40.7278 -85.0847 162° South 137 158 4,900  Level Chicago Center
Fri 08:17:15 PM 40.6894 -85.0681 162° South 143 165 4,900  Level Chicago Center
Fri 08:18:17 PM 40.6461 -85.0481 161° South 148 170 4,900  Level Chicago Center
Fri 08:19:19 PM 40.6089 -85.0308 161° South 145 167 4,900  Level Chicago Center
Fri 08:20:21 PM 40.5639 -85.0094 160° South 143 165 4,900  Level Chicago Center
Fri 08:21:23 PM 40.5264 -84.9906 159° South 144 166 4,900  Level Chicago Center
Fri 08:22:25 PM 40.4886 -84.9739 161° South 143 165 4,900  Level Chicago Center
Fri 08:23:27 PM 40.4492 -84.9578 163° South 146 168 4,900  Level Chicago Center
Fri 08:24:29 PM 40.4114 -84.9411 161° South 144 166 4,900  Level Chicago Center
Fri 08:25:31 PM 40.3733 -84.9236 161° South 145 167 4,900  Level Chicago Center
Fri 08:26:06 PM 40.3447 -84.9114 162° South 145 167 4,900  Level Indianapolis Center
Fri 08:26:58 PM 40.3150 -84.8964 159° South 144 166 4,900  Level Indianapolis Center
Fri 08:28:00 PM 40.2775 -84.8781 160° South 143 165 4,900  Level Indianapolis Center
Fri 08:29:01 PM 40.2400 -84.8622 162° South 142 163 4,900  Level Indianapolis Center
Fri 08:30:09 PM 40.1922 -84.8439 164° South 143 165 4,900  Level Indianapolis Center
Fri 08:31:10 PM 40.1539 -84.8283 163° South 141 162 4,900  Level Indianapolis Center
Fri 08:32:06 PM 40.1208 -84.8158 164° South 139 160 4,900  Level Indianapolis Center
Fri 08:33:07 PM 40.0814 -84.8017 165° South 142 163 4,900  Level Indianapolis Center
Fri 08:34:09 PM 40.0431 -84.7886 165° South 142 163 4,900  Level Indianapolis Center
Fri 08:35:10 PM 40.0067 -84.7733 162° South 139 160 4,900  Level Indianapolis Center
Fri 08:36:11 PM 39.9700 -84.7569 161° South 139 160 4,900  Level Indianapolis Center
Fri 08:37:21 PM 39.9258 -84.7392 163° South 141 162 4,900  Level Indianapolis Center
Fri 08:38:15 PM 39.8947 -84.7231 158° South 142 163 4,900  Level Indianapolis Center
Fri 08:39:16 PM 39.8572 -84.7061 161° South 142 163 4,900 -98 Level Indianapolis Center
Fri 08:40:17 PM 39.8197 -84.6894 161° South 141 162 4,700 -246 Descending Indianapolis Center
Fri 08:41:18 PM 39.7736 -84.6697 162° South 152 175 4,400 -244 Descending Indianapolis Center
Fri 08:42:20 PM 39.7331 -84.6508 160° South 150 173 4,200 -194 Descending Indianapolis Center
Fri 08:43:22 PM 39.6928 -84.6339 162° South 151 174 4,000 -146 Descending Indianapolis Center
Fri 08:44:23 PM 39.6531 -84.6164 161° South 151 174 3,900 -49 Descending Indianapolis Center
Fri 08:45:24 PM 39.6142 -84.6003 162° South 149 171 3,900  Level Indianapolis Center
Fri 08:46:26 PM 39.5778 -84.5836 161° South 144 166 3,900 -98 Level Indianapolis Center
Fri 08:47:27 PM 39.5397 -84.5678 162° South 143 165 3,700 -195 Descending Indianapolis Center
Fri 08:48:29 PM 39.5006 -84.5522 163° South 144 166 3,500 -195 Descending Indianapolis Center
Fri 08:49:30 PM 39.4611 -84.5356 162° South 146 168 3,300 -197 Descending Indianapolis Center
Fri 08:50:31 PM 39.4192 -84.5194 163° South 149 171 3,100 -195 Descending Indianapolis Center
Fri 08:51:33 PM 39.3781 -84.5044 164° South 152 175 2,900 -146 Descending Indianapolis Center
Fri 08:52:34 PM 39.3292 -84.4842 162° South 154 177 2,800 -49 Descending Indianapolis Center
Fri 08:53:35 PM 39.2889 -84.4678 163° South 154 177 2,800  Level Indianapolis Center
Fri 08:54:37 PM 39.2497 -84.4525 163° South 150 173 2,800  Level Indianapolis Center
Fri 08:55:38 PM 39.2119 -84.4397 165° South 150 173 2,800 -221 Level Indianapolis Center
Fri 08:57:47 PM 39.1167 -84.4667 192° South 146 168 2,100 -349 Descending Cincinnati TRACON
Fri 08:58:47 PM 39.1000 -84.4500 142° Southeast 94 108 1,700 -550 Descending Cincinnati TRACON
Fri 08:59:47 PM 39.0833 -84.4333 142° Southeast 95 109 1,000 -700 Descending Cincinnati TRACON
Fri 09:01:00 PM 39.1033 -84.4186 38° Northeast  Level Estimated

Login

Don't have an account? Register now (free) for customized features, flight alerts, and more!